sensor_id;sensor_type;location;lat;lon;timestamp;pressure;altitude;pressure_sealevel;temperature;humidity
64841;BME280;51307;52.162;7.560;2023-01-28T00:01:38;102375.03;;;3.10;50.18
64841;BME280;51307;52.162;7.560;2023-01-28T00:04:03;102376.31;;;3.20;50.11
64841;BME280;51307;52.162;7.560;2023-01-28T00:06:29;102374.34;;;3.07;50.41
64841;BME280;51307;52.162;7.560;2023-01-28T00:08:54;102374.41;;;3.24;49.97
64841;BME280;51307;52.162;7.560;2023-01-28T00:11:21;102375.31;;;3.23;50.14
64841;BME280;51307;52.162;7.560;2023-01-28T00:13:51;102376.00;;;3.09;50.77
64841;BME280;51307;52.162;7.560;2023-01-28T00:16:17;102373.69;;;3.01;50.38
64841;BME280;51307;52.162;7.560;2023-01-28T00:18:42;102379.31;;;3.13;50.31
64841;BME280;51307;52.162;7.560;2023-01-28T00:21:13;102371.47;;;3.11;50.11
64841;BME280;51307;52.162;7.560;2023-01-28T00:23:41;102374.03;;;3.13;49.96
64841;BME280;51307;52.162;7.560;2023-01-28T00:26:13;102369.56;;;3.15;50.51
64841;BME280;51307;52.162;7.560;2023-01-28T00:28:40;102376.59;;;3.14;50.13
64841;BME280;51307;52.162;7.560;2023-01-28T00:31:13;102375.00;;;3.12;50.52
64841;BME280;51307;52.162;7.560;2023-01-28T00:33:42;102376.84;;;3.10;50.69
64841;BME280;51307;52.162;7.560;2023-01-28T00:36:07;102385.50;;;3.13;50.21
64841;BME280;51307;52.162;7.560;2023-01-28T00:38:33;102385.44;;;2.96;50.68
64841;BME280;51307;52.162;7.560;2023-01-28T00:41:29;102378.06;;;3.02;50.06
64841;BME280;51307;52.162;7.560;2023-01-28T00:43:55;102386.25;;;3.15;49.81
64841;BME280;51307;52.162;7.560;2023-01-28T00:46:21;102380.75;;;3.01;50.71
64841;BME280;51307;52.162;7.560;2023-01-28T00:48:47;102384.72;;;2.92;51.01
64841;BME280;51307;52.162;7.560;2023-01-28T00:51:15;102386.34;;;2.95;50.26
64841;BME280;51307;52.162;7.560;2023-01-28T00:53:42;102387.69;;;3.03;50.51
64841;BME280;51307;52.162;7.560;2023-01-28T00:56:12;102391.66;;;2.95;50.67
64841;BME280;51307;52.162;7.560;2023-01-28T00:58:37;102400.41;;;2.76;50.63
64841;BME280;51307;52.162;7.560;2023-01-28T01:01:14;102399.56;;;2.95;49.72
64841;BME280;51307;52.162;7.560;2023-01-28T01:03:40;102393.47;;;2.93;49.78
64841;BME280;51307;52.162;7.560;2023-01-28T01:06:06;102394.47;;;2.90;49.89
64841;BME280;51307;52.162;7.560;2023-01-28T01:08:32;102394.63;;;2.87;49.67
64841;BME280;51307;52.162;7.560;2023-01-28T01:11:06;102397.47;;;2.63;49.68
64841;BME280;51307;52.162;7.560;2023-01-28T01:13:32;102403.78;;;2.80;49.43
64841;BME280;51307;52.162;7.560;2023-01-28T01:18:27;102399.63;;;2.74;49.18
64841;BME280;51307;52.162;7.560;2023-01-28T01:20:52;102400.25;;;2.79;48.89
64841;BME280;51307;52.162;7.560;2023-01-28T01:23:24;102398.84;;;2.72;48.38
64841;BME280;51307;52.162;7.560;2023-01-28T01:25:50;102399.06;;;2.67;48.70
64841;BME280;51307;52.162;7.560;2023-01-28T01:28:16;102397.41;;;2.65;48.66
64841;BME280;51307;52.162;7.560;2023-01-28T01:30:42;102405.47;;;2.62;49.15
64841;BME280;51307;52.162;7.560;2023-01-28T01:33:07;102403.53;;;2.65;49.73
64841;BME280;51307;52.162;7.560;2023-01-28T01:35:32;102406.28;;;2.83;49.42
64841;BME280;51307;52.162;7.560;2023-01-28T01:37:58;102400.25;;;2.79;49.36
64841;BME280;51307;52.162;7.560;2023-01-28T01:40:24;102398.50;;;2.80;48.56
64841;BME280;51307;52.162;7.560;2023-01-28T01:42:49;102391.44;;;2.41;49.61
64841;BME280;51307;52.162;7.560;2023-01-28T01:45:15;102402.88;;;2.60;49.20
64841;BME280;51307;52.162;7.560;2023-01-28T01:48:05;102401.31;;;2.56;49.10
64841;BME280;51307;52.162;7.560;2023-01-28T01:50:39;102392.38;;;2.59;48.56
64841;BME280;51307;52.162;7.560;2023-01-28T01:53:13;102397.03;;;2.73;48.81
64841;BME280;51307;52.162;7.560;2023-01-28T01:55:44;102396.19;;;2.72;48.82
64841;BME280;51307;52.162;7.560;2023-01-28T01:58:14;102400.31;;;2.59;49.30
64841;BME280;51307;52.162;7.560;2023-01-28T02:00:41;102407.75;;;2.69;49.11
64841;BME280;51307;52.162;7.560;2023-01-28T02:03:08;102406.19;;;2.65;49.67
64841;BME280;51307;52.162;7.560;2023-01-28T02:05:36;102408.72;;;2.48;49.61
64841;BME280;51307;52.162;7.560;2023-01-28T02:08:02;102412.97;;;2.31;50.02
64841;BME280;51307;52.162;7.560;2023-01-28T02:11:03;102398.16;;;2.48;49.48
64841;BME280;51307;52.162;7.560;2023-01-28T02:13:38;102407.94;;;2.46;49.10
64841;BME280;51307;52.162;7.560;2023-01-28T02:16:06;102405.63;;;2.38;49.89
64841;BME280;51307;52.162;7.560;2023-01-28T02:18:33;102399.53;;;2.57;49.72
64841;BME280;51307;52.162;7.560;2023-01-28T02:29:16;102407.09;;;2.64;49.32
64841;BME280;51307;52.162;7.560;2023-01-28T02:39:55;102394.59;;;2.49;48.83
64841;BME280;51307;52.162;7.560;2023-01-28T02:42:27;102398.25;;;2.65;48.67
64841;BME280;51307;52.162;7.560;2023-01-28T02:44:54;102403.84;;;2.39;48.83
64841;BME280;51307;52.162;7.560;2023-01-28T02:47:20;102407.88;;;2.27;49.14
64841;BME280;51307;52.162;7.560;2023-01-28T02:50:08;102408.53;;;2.32;49.60
64841;BME280;51307;52.162;7.560;2023-01-28T02:53:33;102399.84;;;2.30;49.56
64841;BME280;51307;52.162;7.560;2023-01-28T03:05:18;102402.59;;;2.27;50.13
64841;BME280;51307;52.162;7.560;2023-01-28T03:07:48;102399.75;;;2.11;50.46
64841;BME280;51307;52.162;7.560;2023-01-28T03:10:19;102402.13;;;2.17;49.97
64841;BME280;51307;52.162;7.560;2023-01-28T03:12:52;102402.81;;;2.22;49.84
64841;BME280;51307;52.162;7.560;2023-01-28T03:15:42;102405.38;;;2.24;49.88
64841;BME280;51307;52.162;7.560;2023-01-28T03:18:35;102400.03;;;2.25;49.83
64841;BME280;51307;52.162;7.560;2023-01-28T03:21:33;102404.03;;;2.13;50.23
64841;BME280;51307;52.162;7.560;2023-01-28T03:24:26;102405.44;;;2.01;50.72
64841;BME280;51307;52.162;7.560;2023-01-28T03:27:18;102394.75;;;2.05;50.73
64841;BME280;51307;52.162;7.560;2023-01-28T03:30:13;102404.13;;;2.12;50.22
64841;BME280;51307;52.162;7.560;2023-01-28T03:32:59;102402.34;;;2.12;50.87
64841;BME280;51307;52.162;7.560;2023-01-28T03:35:46;102393.63;;;2.10;51.49
64841;BME280;51307;52.162;7.560;2023-01-28T03:38:32;102399.63;;;2.14;50.67
64841;BME280;51307;52.162;7.560;2023-01-28T03:41:08;102401.47;;;1.91;50.72
64841;BME280;51307;52.162;7.560;2023-01-28T03:43:34;102403.59;;;2.03;50.29
64841;BME280;51307;52.162;7.560;2023-01-28T03:46:01;102402.25;;;1.93;50.79
64841;BME280;51307;52.162;7.560;2023-01-28T03:48:28;102395.66;;;2.03;50.20
64841;BME280;51307;52.162;7.560;2023-01-28T03:50:55;102394.06;;;2.20;49.16
64841;BME280;51307;52.162;7.560;2023-01-28T03:53:21;102388.78;;;1.99;49.14
64841;BME280;51307;52.162;7.560;2023-01-28T03:55:49;102395.94;;;2.18;50.16
64841;BME280;51307;52.162;7.560;2023-01-28T03:58:17;102410.31;;;2.11;49.82
64841;BME280;51307;52.162;7.560;2023-01-28T04:00:42;102413.28;;;2.24;49.83
64841;BME280;51307;52.162;7.560;2023-01-28T04:03:10;102422.66;;;1.90;50.12
64841;BME280;51307;52.162;7.560;2023-01-28T04:08:12;102419.56;;;2.00;48.91
64841;BME280;51307;52.162;7.560;2023-01-28T04:10:39;102420.28;;;2.04;49.34
64841;BME280;51307;52.162;7.560;2023-01-28T04:13:05;102413.22;;;2.25;49.09
64841;BME280;51307;52.162;7.560;2023-01-28T04:15:32;102420.16;;;2.07;49.98
64841;BME280;51307;52.162;7.560;2023-01-28T04:17:57;102417.94;;;2.39;48.83
64841;BME280;51307;52.162;7.560;2023-01-28T04:20:25;102420.75;;;2.34;49.49
64841;BME280;51307;52.162;7.560;2023-01-28T04:22:51;102428.63;;;2.15;49.68
64841;BME280;51307;52.162;7.560;2023-01-28T04:25:16;102434.03;;;2.12;49.35
64841;BME280;51307;52.162;7.560;2023-01-28T04:27:42;102439.25;;;2.34;49.27
64841;BME280;51307;52.162;7.560;2023-01-28T04:30:08;102430.00;;;2.03;49.98
64841;BME280;51307;52.162;7.560;2023-01-28T04:32:33;102423.41;;;2.14;49.68
64841;BME280;51307;52.162;7.560;2023-01-28T04:34:59;102419.16;;;2.30;49.37
64841;BME280;51307;52.162;7.560;2023-01-28T04:37:24;102418.03;;;2.36;48.74
64841;BME280;51307;52.162;7.560;2023-01-28T04:39:50;102419.28;;;2.07;49.41
64841;BME280;51307;52.162;7.560;2023-01-28T04:42:15;102419.56;;;2.21;49.08
64841;BME280;51307;52.162;7.560;2023-01-28T04:44:41;102417.31;;;2.12;49.32
64841;BME280;51307;52.162;7.560;2023-01-28T04:47:06;102417.91;;;2.18;49.67
64841;BME280;51307;52.162;7.560;2023-01-28T04:49:32;102423.00;;;2.44;49.10
64841;BME280;51307;52.162;7.560;2023-01-28T04:51:57;102428.75;;;2.12;49.88
64841;BME280;51307;52.162;7.560;2023-01-28T04:54:23;102422.72;;;2.09;50.21
64841;BME280;51307;52.162;7.560;2023-01-28T04:56:48;102421.81;;;2.30;48.91
64841;BME280;51307;52.162;7.560;2023-01-28T04:59:14;102417.31;;;2.12;49.44
64841;BME280;51307;52.162;7.560;2023-01-28T05:01:40;102420.75;;;2.34;49.00
64841;BME280;51307;52.162;7.560;2023-01-28T05:04:05;102420.34;;;2.44;49.00
64841;BME280;51307;52.162;7.560;2023-01-28T05:06:31;102424.56;;;2.07;49.62
64841;BME280;51307;52.162;7.560;2023-01-28T05:08:57;102423.78;;;2.05;49.56
64841;BME280;51307;52.162;7.560;2023-01-28T05:11:23;102428.66;;;1.93;50.15
64841;BME280;51307;52.162;7.560;2023-01-28T05:13:49;102434.44;;;1.81;50.75
64841;BME280;51307;52.162;7.560;2023-01-28T05:16:16;102428.78;;;2.11;49.36
64841;BME280;51307;52.162;7.560;2023-01-28T05:18:41;102448.91;;;1.93;49.65
64841;BME280;51307;52.162;7.560;2023-01-28T05:21:08;102444.59;;;2.33;49.27
64841;BME280;51307;52.162;7.560;2023-01-28T05:23:33;102450.34;;;2.01;49.71
64841;BME280;51307;52.162;7.560;2023-01-28T05:25:59;102444.16;;;1.80;49.79
64841;BME280;51307;52.162;7.560;2023-01-28T05:28:25;102443.84;;;1.88;49.56
64841;BME280;51307;52.162;7.560;2023-01-28T05:30:50;102447.69;;;1.79;50.06
64841;BME280;51307;52.162;7.560;2023-01-28T05:33:16;102444.00;;;1.83;49.69
64841;BME280;51307;52.162;7.560;2023-01-28T05:35:42;102438.56;;;1.88;49.49
64841;BME280;51307;52.162;7.560;2023-01-28T05:38:07;102425.13;;;2.15;48.82
64841;BME280;51307;52.162;7.560;2023-01-28T05:40:33;102429.31;;;1.98;49.05
64841;BME280;51307;52.162;7.560;2023-01-28T05:42:58;102429.75;;;1.88;49.05
64841;BME280;51307;52.162;7.560;2023-01-28T05:45:24;102428.06;;;1.64;49.85
64841;BME280;51307;52.162;7.560;2023-01-28T05:47:50;102417.88;;;1.77;49.20
64841;BME280;51307;52.162;7.560;2023-01-28T05:50:15;102421.31;;;1.79;48.91
64841;BME280;51307;52.162;7.560;2023-01-28T05:52:41;102418.44;;;2.06;48.38
64841;BME280;51307;52.162;7.560;2023-01-28T05:55:07;102425.38;;;1.88;48.76
64841;BME280;51307;52.162;7.560;2023-01-28T05:57:33;102426.22;;;1.89;49.34
64841;BME280;51307;52.162;7.560;2023-01-28T06:00:01;102423.47;;;1.69;49.49
64841;BME280;51307;52.162;7.560;2023-01-28T06:02:26;102424.56;;;1.86;50.07
64841;BME280;51307;52.162;7.560;2023-01-28T06:04:52;102417.38;;;1.67;50.33
64841;BME280;51307;52.162;7.560;2023-01-28T06:07:17;102414.19;;;1.59;49.96
64841;BME280;51307;52.162;7.560;2023-01-28T06:09:46;102419.09;;;1.68;50.11
64841;BME280;51307;52.162;7.560;2023-01-28T06:12:12;102424.25;;;1.72;49.53
64841;BME280;51307;52.162;7.560;2023-01-28T06:14:38;102408.41;;;1.72;49.66
64841;BME280;51307;52.162;7.560;2023-01-28T06:17:03;102426.00;;;1.50;50.06
64841;BME280;51307;52.162;7.560;2023-01-28T06:19:29;102426.94;;;1.92;49.66
64841;BME280;51307;52.162;7.560;2023-01-28T06:21:54;102423.16;;;1.77;49.44
64841;BME280;51307;52.162;7.560;2023-01-28T06:24:20;102426.53;;;1.59;49.10
64841;BME280;51307;52.162;7.560;2023-01-28T06:26:46;102428.31;;;1.36;49.92
64841;BME280;51307;52.162;7.560;2023-01-28T06:29:11;102428.09;;;1.42;49.85
64841;BME280;51307;52.162;7.560;2023-01-28T06:31:36;102431.38;;;1.47;50.24
64841;BME280;51307;52.162;7.560;2023-01-28T06:34:02;102420.59;;;1.53;49.95
64841;BME280;51307;52.162;7.560;2023-01-28T06:36:27;102427.81;;;1.48;50.11
64841;BME280;51307;52.162;7.560;2023-01-28T06:38:53;102426.34;;;1.63;49.71
64841;BME280;51307;52.162;7.560;2023-01-28T06:41:18;102419.34;;;1.84;49.78
64841;BME280;51307;52.162;7.560;2023-01-28T06:43:44;102423.03;;;1.58;50.71
64841;BME280;51307;52.162;7.560;2023-01-28T06:46:10;102427.06;;;1.45;50.88
64841;BME280;51307;52.162;7.560;2023-01-28T06:48:35;102439.16;;;1.73;49.83
64841;BME280;51307;52.162;7.560;2023-01-28T06:51:01;102456.28;;;1.62;50.26
64841;BME280;51307;52.162;7.560;2023-01-28T06:53:26;102437.34;;;1.75;49.51
64841;BME280;51307;52.162;7.560;2023-01-28T06:55:52;102444.00;;;2.06;49.61
64841;BME280;51307;52.162;7.560;2023-01-28T06:58:17;102431.63;;;1.63;50.35
64841;BME280;51307;52.162;7.560;2023-01-28T07:00:43;102442.72;;;1.72;50.31
64841;BME280;51307;52.162;7.560;2023-01-28T07:03:08;102446.22;;;1.50;50.58
64841;BME280;51307;52.162;7.560;2023-01-28T07:05:34;102445.19;;;1.54;49.62
64841;BME280;51307;52.162;7.560;2023-01-28T07:07:59;102445.94;;;1.58;49.25
64841;BME280;51307;52.162;7.560;2023-01-28T07:10:26;102449.81;;;1.49;49.86
64841;BME280;51307;52.162;7.560;2023-01-28T07:12:52;102458.00;;;1.41;49.55
64841;BME280;51307;52.162;7.560;2023-01-28T07:15:18;102452.25;;;1.31;49.46
64841;BME280;51307;52.162;7.560;2023-01-28T07:17:44;102455.38;;;1.63;48.89
64841;BME280;51307;52.162;7.560;2023-01-28T07:20:12;102453.34;;;1.48;49.49
64841;BME280;51307;52.162;7.560;2023-01-28T07:22:40;102455.25;;;1.44;49.69
64841;BME280;51307;52.162;7.560;2023-01-28T07:25:08;102442.56;;;1.76;48.65
64841;BME280;51307;52.162;7.560;2023-01-28T07:27:34;102439.66;;;1.82;48.41
64841;BME280;51307;52.162;7.560;2023-01-28T07:29:59;102451.28;;;1.56;48.66
64841;BME280;51307;52.162;7.560;2023-01-28T07:32:25;102454.19;;;1.48;49.15
64841;BME280;51307;52.162;7.560;2023-01-28T07:34:52;102454.94;;;1.52;49.76
64841;BME280;51307;52.162;7.560;2023-01-28T07:37:18;102466.91;;;1.61;49.24
64841;BME280;51307;52.162;7.560;2023-01-28T07:39:44;102470.63;;;1.33;49.62
64841;BME280;51307;52.162;7.560;2023-01-28T07:42:09;102478.13;;;1.44;49.61
64841;BME280;51307;52.162;7.560;2023-01-28T07:44:35;102489.59;;;1.43;49.58
64841;BME280;51307;52.162;7.560;2023-01-28T07:47:02;102488.22;;;1.32;50.23
64841;BME280;51307;52.162;7.560;2023-01-28T07:49:28;102479.66;;;1.49;49.81
64841;BME280;51307;52.162;7.560;2023-01-28T07:51:54;102486.75;;;1.49;49.15
64841;BME280;51307;52.162;7.560;2023-01-28T07:54:19;102482.25;;;1.27;50.00
64841;BME280;51307;52.162;7.560;2023-01-28T07:56:45;102481.69;;;1.43;50.04
64841;BME280;51307;52.162;7.560;2023-01-28T07:59:11;102482.50;;;1.21;50.12
64841;BME280;51307;52.162;7.560;2023-01-28T08:01:36;102499.19;;;1.45;50.12
64841;BME280;51307;52.162;7.560;2023-01-28T08:04:02;102513.13;;;1.49;49.70
64841;BME280;51307;52.162;7.560;2023-01-28T08:06:28;102513.84;;;1.52;50.01
64841;BME280;51307;52.162;7.560;2023-01-28T08:08:54;102501.94;;;1.42;49.85
64841;BME280;51307;52.162;7.560;2023-01-28T08:11:20;102515.63;;;1.52;49.64
64841;BME280;51307;52.162;7.560;2023-01-28T08:13:48;102528.03;;;1.26;50.30
64841;BME280;51307;52.162;7.560;2023-01-28T08:16:14;102525.78;;;1.85;47.87
64841;BME280;51307;52.162;7.560;2023-01-28T08:18:39;102528.34;;;1.64;48.50
64841;BME280;51307;52.162;7.560;2023-01-28T08:21:07;102538.91;;;1.86;47.75
64841;BME280;51307;52.162;7.560;2023-01-28T08:23:33;102552.72;;;1.71;48.15
64841;BME280;51307;52.162;7.560;2023-01-28T08:25:59;102539.41;;;1.74;47.91
64841;BME280;51307;52.162;7.560;2023-01-28T08:28:25;102533.53;;;1.44;48.11
64841;BME280;51307;52.162;7.560;2023-01-28T08:30:51;102539.13;;;1.11;48.34
64841;BME280;51307;52.162;7.560;2023-01-28T08:33:18;102538.91;;;1.17;48.86
64841;BME280;51307;52.162;7.560;2023-01-28T08:35:44;102549.22;;;1.71;47.46
64841;BME280;51307;52.162;7.560;2023-01-28T08:38:14;102554.00;;;1.37;48.20
64841;BME280;51307;52.162;7.560;2023-01-28T08:40:40;102554.94;;;1.58;47.94
64841;BME280;51307;52.162;7.560;2023-01-28T08:43:06;102549.63;;;1.36;48.27
64841;BME280;51307;52.162;7.560;2023-01-28T08:45:31;102546.25;;;1.56;48.42
64841;BME280;51307;52.162;7.560;2023-01-28T08:47:58;102545.84;;;1.43;48.72
64841;BME280;51307;52.162;7.560;2023-01-28T08:50:26;102545.22;;;1.36;48.17
64841;BME280;51307;52.162;7.560;2023-01-28T08:52:58;102554.38;;;1.50;48.46
64841;BME280;51307;52.162;7.560;2023-01-28T08:55:24;102566.53;;;1.78;48.22
64841;BME280;51307;52.162;7.560;2023-01-28T08:57:50;102547.22;;;1.77;48.88
64841;BME280;51307;52.162;7.560;2023-01-28T09:00:16;102565.28;;;1.64;48.54
64841;BME280;51307;52.162;7.560;2023-01-28T09:02:43;102572.69;;;2.00;47.44
64841;BME280;51307;52.162;7.560;2023-01-28T09:05:08;102569.94;;;1.81;48.32
64841;BME280;51307;52.162;7.560;2023-01-28T09:07:34;102577.72;;;1.84;48.20
64841;BME280;51307;52.162;7.560;2023-01-28T09:10:00;102572.06;;;1.94;47.27
64841;BME280;51307;52.162;7.560;2023-01-28T09:12:26;102582.22;;;2.05;47.40
64841;BME280;51307;52.162;7.560;2023-01-28T09:14:52;102584.09;;;2.01;47.34
64841;BME280;51307;52.162;7.560;2023-01-28T09:17:19;102578.34;;;1.91;48.03
64841;BME280;51307;52.162;7.560;2023-01-28T09:19:44;102588.69;;;1.96;47.97
64841;BME280;51307;52.162;7.560;2023-01-28T09:22:10;102574.88;;;1.89;48.00
64841;BME280;51307;52.162;7.560;2023-01-28T09:24:35;102562.94;;;1.57;48.80
64841;BME280;51307;52.162;7.560;2023-01-28T09:27:01;102572.06;;;1.94;48.48
64841;BME280;51307;52.162;7.560;2023-01-28T09:29:26;102573.75;;;1.73;48.26
64841;BME280;51307;52.162;7.560;2023-01-28T09:31:52;102564.88;;;1.51;48.40
64841;BME280;51307;52.162;7.560;2023-01-28T09:34:17;102570.78;;;1.82;48.29
64841;BME280;51307;52.162;7.560;2023-01-28T09:36:43;102558.47;;;1.59;48.36
64841;BME280;51307;52.162;7.560;2023-01-28T09:39:08;102577.16;;;1.76;48.25
64841;BME280;51307;52.162;7.560;2023-01-28T09:47:03;102582.63;;;1.94;47.84
64841;BME280;51307;52.162;7.560;2023-01-28T09:49:36;102583.06;;;1.59;48.28
64841;BME280;51307;52.162;7.560;2023-01-28T09:52:03;102583.19;;;1.56;49.06
64841;BME280;51307;52.162;7.560;2023-01-28T09:54:48;102573.38;;;1.60;48.59
64841;BME280;51307;52.162;7.560;2023-01-28T09:57:24;102581.75;;;1.47;48.60
64841;BME280;51307;52.162;7.560;2023-01-28T09:59:49;102590.84;;;1.62;49.05
64841;BME280;51307;52.162;7.560;2023-01-28T10:10:32;102605.72;;;2.11;47.76
64841;BME280;51307;52.162;7.560;2023-01-28T10:13:14;102609.03;;;1.94;47.85
64841;BME280;51307;52.162;7.560;2023-01-28T10:16:05;102603.13;;;1.87;48.00
64841;BME280;51307;52.162;7.560;2023-01-28T10:18:49;102597.84;;;1.87;47.83
64841;BME280;51307;52.162;7.560;2023-01-28T10:24:05;102602.50;;;1.80;48.23
64841;BME280;51307;52.162;7.560;2023-01-28T10:26:38;102599.84;;;2.26;48.24
64841;BME280;51307;52.162;7.560;2023-01-28T10:29:16;102605.09;;;2.04;47.95
64841;BME280;51307;52.162;7.560;2023-01-28T10:31:54;102609.00;;;2.40;46.74
64841;BME280;51307;52.162;7.560;2023-01-28T10:34:23;102610.41;;;2.26;47.46
64841;BME280;51307;52.162;7.560;2023-01-28T10:36:49;102604.88;;;1.88;47.93
64841;BME280;51307;52.162;7.560;2023-01-28T10:39:18;102600.81;;;2.01;47.95
64841;BME280;51307;52.162;7.560;2023-01-28T10:41:45;102599.22;;;2.19;48.06
64841;BME280;51307;52.162;7.560;2023-01-28T10:44:41;102594.78;;;1.98;48.23
64841;BME280;51307;52.162;7.560;2023-01-28T10:47:22;102592.06;;;2.23;48.17
64841;BME280;51307;52.162;7.560;2023-01-28T10:49:57;102582.75;;;2.13;48.79
64841;BME280;51307;52.162;7.560;2023-01-28T10:52:24;102581.09;;;1.88;48.89
64841;BME280;51307;52.162;7.560;2023-01-28T10:54:59;102562.91;;;1.80;48.75
64841;BME280;51307;52.162;7.560;2023-01-28T10:57:25;102560.66;;;2.15;48.19
64841;BME280;51307;52.162;7.560;2023-01-28T10:59:51;102562.81;;;2.06;48.05
64841;BME280;51307;52.162;7.560;2023-01-28T11:02:25;102565.31;;;2.09;47.85
64841;BME280;51307;52.162;7.560;2023-01-28T11:05:25;102556.09;;;1.75;48.33
64841;BME280;51307;52.162;7.560;2023-01-28T11:08:14;102556.53;;;2.30;48.01
64841;BME280;51307;52.162;7.560;2023-01-28T11:10:41;102554.47;;;2.16;48.11
64841;BME280;51307;52.162;7.560;2023-01-28T11:13:17;102545.53;;;2.62;47.07
64841;BME280;51307;52.162;7.560;2023-01-28T11:15:51;102536.81;;;2.60;48.06
64841;BME280;51307;52.162;7.560;2023-01-28T11:18:24;102523.13;;;2.70;47.64
64841;BME280;51307;52.162;7.560;2023-01-28T11:20:54;102521.69;;;2.63;48.01
64841;BME280;51307;52.162;7.560;2023-01-28T11:23:35;102521.88;;;2.79;47.85
64841;BME280;51307;52.162;7.560;2023-01-28T11:26:15;102511.44;;;2.76;48.05
64841;BME280;51307;52.162;7.560;2023-01-28T11:28:42;102513.81;;;2.62;47.84
64841;BME280;51307;52.162;7.560;2023-01-28T11:31:12;102523.81;;;2.76;47.86
64841;BME280;51307;52.162;7.560;2023-01-28T11:36:16;102511.09;;;2.84;47.85
64841;BME280;51307;52.162;7.560;2023-01-28T11:38:54;102521.22;;;2.74;47.67
64841;BME280;51307;52.162;7.560;2023-01-28T11:41:33;102514.94;;;2.56;47.54
64841;BME280;51307;52.162;7.560;2023-01-28T11:44:11;102509.72;;;2.75;47.15
64841;BME280;51307;52.162;7.560;2023-01-28T11:49:23;102493.75;;;2.78;47.48
64841;BME280;51307;52.162;7.560;2023-01-28T12:02:24;102451.81;;;3.09;47.84
64841;BME280;51307;52.162;7.560;2023-01-28T12:10:12;102429.66;;;3.11;48.38
64841;BME280;51307;52.162;7.560;2023-01-28T12:16:04;102460.56;;;3.11;47.77
64841;BME280;51307;52.162;7.560;2023-01-28T12:46:05;102457.13;;;3.47;47.24
64841;BME280;51307;52.162;7.560;2023-01-28T12:48:40;102463.34;;;3.46;46.80
64841;BME280;51307;52.162;7.560;2023-01-28T12:51:14;102452.44;;;3.52;47.08
64841;BME280;51307;52.162;7.560;2023-01-28T12:53:51;102452.25;;;3.37;48.05
64841;BME280;51307;52.162;7.560;2023-01-28T12:56:29;102456.81;;;3.53;47.90
64841;BME280;51307;52.162;7.560;2023-01-28T13:01:44;102459.28;;;3.56;47.08
64841;BME280;51307;52.162;7.560;2023-01-28T13:06:59;102459.69;;;3.29;47.77
64841;BME280;51307;52.162;7.560;2023-01-28T13:09:29;102446.38;;;3.50;47.45
64841;BME280;51307;52.162;7.560;2023-01-28T13:11:57;102443.94;;;3.45;47.19
64841;BME280;51307;52.162;7.560;2023-01-28T13:14:33;102455.59;;;3.41;47.35
64841;BME280;51307;52.162;7.560;2023-01-28T13:17:25;102455.09;;;3.33;46.82
64841;BME280;51307;52.162;7.560;2023-01-28T13:19:51;102461.81;;;3.21;47.56
64841;BME280;51307;52.162;7.560;2023-01-28T13:22:30;102463.91;;;3.33;47.16
64841;BME280;51307;52.162;7.560;2023-01-28T13:25:11;102462.53;;;3.06;47.84
64841;BME280;51307;52.162;7.560;2023-01-28T13:27:37;102449.25;;;3.07;47.82
64841;BME280;51307;52.162;7.560;2023-01-28T13:30:21;102458.09;;;3.25;47.44
64841;BME280;51307;52.162;7.560;2023-01-28T13:32:59;102431.50;;;2.90;47.53
64841;BME280;51307;52.162;7.560;2023-01-28T13:35:32;102438.88;;;3.02;47.40
64841;BME280;51307;52.162;7.560;2023-01-28T13:38:07;102420.81;;;3.12;47.13
64841;BME280;51307;52.162;7.560;2023-01-28T13:40:34;102402.19;;;3.33;47.38
64841;BME280;51307;52.162;7.560;2023-01-28T13:43:22;102405.63;;;3.35;47.39
64841;BME280;51307;52.162;7.560;2023-01-28T13:45:59;102406.84;;;3.47;47.78
64841;BME280;51307;52.162;7.560;2023-01-28T13:48:45;102404.91;;;3.31;47.30
64841;BME280;51307;52.162;7.560;2023-01-28T13:51:31;102401.28;;;3.15;47.36
64841;BME280;51307;52.162;7.560;2023-01-28T13:54:05;102399.78;;;3.28;47.34
64841;BME280;51307;52.162;7.560;2023-01-28T14:02:39;102389.94;;;3.67;47.33
64841;BME280;51307;52.162;7.560;2023-01-28T14:05:25;102378.97;;;3.57;47.02
64841;BME280;51307;52.162;7.560;2023-01-28T14:10:52;102391.00;;;3.64;47.04
64841;BME280;51307;52.162;7.560;2023-01-28T14:16:44;102411.66;;;3.56;47.28
64841;BME280;51307;52.162;7.560;2023-01-28T14:19:27;102430.69;;;3.64;47.34
64841;BME280;51307;52.162;7.560;2023-01-28T14:21:55;102441.94;;;3.50;47.51
64841;BME280;51307;52.162;7.560;2023-01-28T14:24:21;102447.25;;;3.31;47.90
64841;BME280;51307;52.162;7.560;2023-01-28T14:27:30;102448.25;;;3.29;47.93
64841;BME280;51307;52.162;7.560;2023-01-28T14:30:24;102440.38;;;3.27;48.22
64841;BME280;51307;52.162;7.560;2023-01-28T14:32:54;102450.75;;;3.51;48.04
64841;BME280;51307;52.162;7.560;2023-01-28T14:35:32;102436.00;;;3.26;47.72
64841;BME280;51307;52.162;7.560;2023-01-28T14:38:06;102435.81;;;3.12;48.07
64841;BME280;51307;52.162;7.560;2023-01-28T14:40:37;102427.97;;;3.29;48.31
64841;BME280;51307;52.162;7.560;2023-01-28T14:43:08;102429.66;;;2.92;48.61
64841;BME280;51307;52.162;7.560;2023-01-28T14:46:04;102437.81;;;3.26;47.87
64841;BME280;51307;52.162;7.560;2023-01-28T14:51:56;102441.72;;;3.17;48.50
64841;BME280;51307;52.162;7.560;2023-01-28T14:54:40;102436.94;;;2.87;48.73
64841;BME280;51307;52.162;7.560;2023-01-28T14:57:42;102435.34;;;2.64;49.26
64841;BME280;51307;52.162;7.560;2023-01-28T15:00:18;102428.09;;;2.88;48.71
64841;BME280;51307;52.162;7.560;2023-01-28T15:02:44;102436.09;;;2.86;48.97
64841;BME280;51307;52.162;7.560;2023-01-28T15:05:16;102430.66;;;2.90;49.09
64841;BME280;51307;52.162;7.560;2023-01-28T15:07:46;102429.91;;;2.86;49.09
64841;BME280;51307;52.162;7.560;2023-01-28T15:10:17;102437.50;;;2.94;48.96
64841;BME280;51307;52.162;7.560;2023-01-28T15:12:49;102434.69;;;3.17;49.04
64841;BME280;51307;52.162;7.560;2023-01-28T15:15:29;102440.47;;;2.67;49.82
64841;BME280;51307;52.162;7.560;2023-01-28T15:18:14;102444.66;;;2.92;49.09